Massachusetts Logo

New Bedford, MA Single Family Real Estate Listings

136 Total Real Estate Listings * Click on table heading to sort
Date Posted Property Type Style Address Price Living Area Lot Size Price/Sq Ft.
2018-10-17 Single Family Ranch 512 Bedford Street New Bedford, MA 02740 $224,900 1,120 sq. ft. 3,920 sq. ft. $201
2018-10-16 Single Family Cape 19 Jenny Lind St New Bedford, MA 02740 $156,000 1,845 sq. ft. 7,405 sq. ft. $85
2018-10-16 Single Family Cottage 121 Parker St New Bedford, MA 02740 $174,900 1,379 sq. ft. 2,178 sq. ft. $127
2018-10-16 Single Family Cape 1061 Bowles St New Bedford, MA 02745 $289,000 1,492 sq. ft. 6,534 sq. ft. $194
2018-10-15 Single Family Colonial 14 Bay St New Bedford, MA 02740 $199,900 1,324 sq. ft. 2,614 sq. ft. $151
2018-10-15 Single Family Colonial 43 Brigham Street New Bedford, MA 02774 $330,000 1,722 sq. ft. 3,485 sq. ft. $192
2018-10-15 Single Family Cottage 181 Newton St New Bedford, MA 02740 $199,800 1,184 sq. ft. 3,049 sq. ft. $169
2018-10-15 Single Family Ranch 62 Garrison Rd New Bedford, MA 02745 $249,800 1,125 sq. ft. 10,019 sq. ft. $222
2018-10-15 Single Family Colonial 1091 Tacoma St New Bedford, MA 02745 $255,000 1,520 sq. ft. 16,117 sq. ft. $168
2018-10-15 Single Family Colonial 49 Willis St New Bedford, MA 02740 $245,000 1,724 sq. ft. 4,356 sq. ft. $142
2018-10-12 Single Family Cottage 37 Sycamore St New Bedford, MA 02740 $70,000 1,573 sq. ft. 3,920 sq. ft. $45
2018-10-10 Single Family Cape 137 Lafayette St New Bedford, MA 02745 $239,000 1,316 sq. ft. 4,792 sq. ft. $182
2018-10-10 Single Family Colonial 28 Jonathan St New Bedford, MA 02740 $279,900 1,690 sq. ft. 3,485 sq. ft. $166
2018-10-10 Single Family Ranch 78 Caswell St New Bedford, MA 02745 $215,000 1,143 sq. ft. 5,227 sq. ft. $188
2018-10-09 Single Family Cottage 25 Bluejay St New Bedford, MA 02745 $239,900 702 sq. ft. 4,792 sq. ft. $342
2018-10-09 Single Family Bungalow 273 Wood St New Bedford, MA 02745 $285,000 1,731 sq. ft. 5,663 sq. ft. $165
2018-10-08 Single Family Ranch 973 Fox St New Bedford, MA 02745 $125,000 991 sq. ft. 8,276 sq. ft. $126
2018-10-05 Single Family Cape 126 Pitman St New Bedford, MA 02746 $225,000 1,398 sq. ft. 5,663 sq. ft. $161
2018-10-04 Single Family Colonial 144 Church St New Bedford, MA 02745 $219,000 1,382 sq. ft. 3,049 sq. ft. $158
2018-10-04 Single Family Ranch 54 Irene St New Bedford, MA 02745 $264,900 960 sq. ft. 7,841 sq. ft. $276
2018-10-03 Single Family Colonial 6 Green Street New Bedford, MA 02740 $229,900 1,807 sq. ft. 4,356 sq. ft. $127
2018-10-02 Single Family Colonial 27 Tori Lynn Dr New Bedford, MA 02745 $275,000 1,944 sq. ft. 10,454 sq. ft. $141
2018-10-02 Single Family Raised Ranch 45 Julie Place New Bedford, MA 02740 $279,800 2,194 sq. ft. 5,227 sq. ft. $128
2018-10-01 Single Family Cottage 103 Sycamore St New Bedford, MA 02740 $110,000 1,741 sq. ft. 2,178 sq. ft. $63
2018-09-29 Single Family Cottage 63 Washburn Street New Bedford, MA 02740 $198,000 1,382 sq. ft. 4,792 sq. ft. $143
2018-09-29 Single Family Cape 2682 Acushnet Ave New Bedford, MA 02745 $252,900 2,371 sq. ft. 8,712 sq. ft. $107
2018-09-28 Single Family Contemporary 107 Shaw Street New Bedford, MA 02745 $239,054 1,052 sq. ft. 5,227 sq. ft. $227
2018-09-27 Single Family Cottage 370 Park Street New Bedford, MA 02740 $159,900 1,263 sq. ft. 3,049 sq. ft. $127
2018-09-27 Single Family Ranch 1274 Robin St New Bedford, MA 02745 $269,900 1,125 sq. ft. 7,841 sq. ft. $240
2018-09-27 Single Family Cape 195 Pine Grove St New Bedford, MA 02745 $279,900 1,730 sq. ft. 7,405 sq. ft. $162
2018-09-27 Single Family Ranch 50 Worcester St New Bedford, MA 02745 $239,900 960 sq. ft. 4,792 sq. ft. $250
2018-09-26 Single Family Cape 323 County St New Bedford, MA 02740 $99,000 1,154 sq. ft. 3,049 sq. ft. $86
2018-09-24 Single Family Raised Ranch 22 Cox St New Bedford, MA 02745 $299,000 1,832 sq. ft. 10,019 sq. ft. $163
2018-09-23 Single Family Cape 1095 Pequot St New Bedford, MA 02745 $189,900 1,329 sq. ft. 6,098 sq. ft. $143
2018-09-22 Single Family Colonial 142 Page St New Bedford, MA 02740 $419,900 2,488 sq. ft. 11,761 sq. ft. $169
2018-09-22 Single Family Gambrel /Dutch 169 Central Avenue New Bedford, MA 02745 $189,900 1,100 sq. ft. 5,227 sq. ft. $173
2018-09-20 Single Family Cape 6 Mount Pleasant Ln New Bedford, MA 02740 $179,500 1,030 sq. ft. 3,049 sq. ft. $174
2018-09-19 Single Family Colonial 20 Seth Daniel Drive New Bedford, MA 02745 $425,000 1,568 sq. ft. 11,326 sq. ft. $271
2018-09-18 Single Family Colonial 14 Seth Daniel Drive New Bedford, MA 02745 $418,000 1,872 sq. ft. 13,504 sq. ft. $223
2018-09-18 Single Family Colonial 0 Tradewind St New Bedford, MA 02740 $379,900 1,532 sq. ft. 15,246 sq. ft. $248
2018-09-17 Single Family Colonial 389 Maxfield St New Bedford, MA 02740 $209,000 1,694 sq. ft. 4,792 sq. ft. $123
2018-09-16 Single Family Cottage 113 Rounds St New Bedford, MA 02740 $200,000 1,248 sq. ft. 2,614 sq. ft. $160
2018-09-15 Single Family Ranch 250 Commonwealth Ave New Bedford, MA 02740 $239,900 1,064 sq. ft. 4,792 sq. ft. $225
2018-09-13 Single Family Split Entry 317 Cornell St New Bedford, MA 02740 $280,000 1,528 sq. ft. 9,583 sq. ft. $183
2018-09-12 Single Family Ranch 124 Greenwood St New Bedford, MA 02740 $219,900 1,232 sq. ft. 9,148 sq. ft. $178
2018-09-12 Single Family Cape 24 Seventh New Bedford, MA 02740 $249,900 1,477 sq. ft. 3,920 sq. ft. $169
2018-09-12 Single Family Ranch 54 Stackhouse Street New Bedford, MA 02740 $224,900 910 sq. ft. 5,227 sq. ft. $247
2018-09-12 Single Family Ranch 175 Hudson St New Bedford, MA 02744 $249,900 1,136 sq. ft. 9,583 sq. ft. $220
2018-09-11 Single Family Ranch 39 Holly Tree Lane New Bedford, MA 02745 $289,900 1,475 sq. ft. 9,148 sq. ft. $197
2018-09-11 Single Family Colonial 65 East Clinton St New Bedford, MA 02740 $349,000 2,543 sq. ft. 4,356 sq. ft. $137
2018-09-10 Single Family Cape 62 Fair St New Bedford, MA 02740 $234,900 1,353 sq. ft. 2,614 sq. ft. $174
2018-09-07 Single Family Colonial 68 Mate Drive New Bedford, MA 02745 $349,900 1,868 sq. ft. 10,019 sq. ft. $187
2018-09-06 Single Family Ranch 60 Tanglewood Dr New Bedford, MA 02740 $359,900 1,572 sq. ft. 10,019 sq. ft. $229
2018-09-05 Single Family Cottage 51 Norwell St New Bedford, MA 02740 $100,000 474 sq. ft. 3,485 sq. ft. $211
2018-09-05 Single Family Colonial 217 Rounds St New Bedford, MA 02740 $350,000 2,361 sq. ft. 3,485 sq. ft. $148
2018-09-05 Single Family Ranch 188 Wilbur Street New Bedford, MA 02740 $269,900 1,080 sq. ft. 10,454 sq. ft. $250
2018-09-05 Single Family Cape 184 Lafayette St New Bedford, MA 02745 $249,900 1,279 sq. ft. 4,356 sq. ft. $195
2018-09-04 Single Family Ranch 108 Felton Street New Bedford, MA 02745 $279,900 1,530 sq. ft. 4,356 sq. ft. $183
2018-09-04 Single Family Queen Anne; Other (See Remarks) 16 Chancery St New Bedford, MA 02740 $419,000 1,654 sq. ft. 10,019 sq. ft. $253
2018-09-04 Single Family Colonial 98 Lafayette St New Bedford, MA 02745 $329,000 2,350 sq. ft. 6,970 sq. ft. $140
2018-08-31 Single Family Raised Ranch 457 Loftus St New Bedford, MA 02746 $265,900 1,056 sq. ft. 15,246 sq. ft. $252
2018-08-30 Single Family Farmhouse 3146 Acushnet Ave New Bedford, MA 02745 $450,000 1,216 sq. ft. 99,317 sq. ft. $370
2018-08-30 Single Family Cottage 98 Parker St New Bedford, MA 02740 $179,900 1,619 sq. ft. 7,405 sq. ft. $111
2018-08-30 Single Family Cottage 126 Chestnut St New Bedford, MA 02740 $249,900 1,993 sq. ft. 5,663 sq. ft. $125
2018-08-30 Single Family Colonial 654 County St New Bedford, MA 02740 $219,900 1,906 sq. ft. 3,049 sq. ft. $115
2018-08-29 Single Family Colonial 114 Liberty St New Bedford, MA 02740 $184,900 1,188 sq. ft. 1,742 sq. ft. $156
2018-08-29 Single Family Colonial 180 Belleville Rd New Bedford, MA 02745 $184,900 1,772 sq. ft. 3,049 sq. ft. $104
2018-08-29 Single Family Colonial 112 Liberty St New Bedford, MA 02740 $184,900 1,459 sq. ft. 3,049 sq. ft. $127
2018-08-28 Single Family Colonial 180 East Clinton St New Bedford, MA 02740 $194,500 2,054 sq. ft. 3,049 sq. ft. $95
2018-08-24 Single Family Ranch 18 Blaze Rd New Bedford, MA 02745 $239,000 768 sq. ft. 8,276 sq. ft. $311
2018-08-23 Single Family Cottage 18 Washington Ave New Bedford, MA 02740 $204,000 1,218 sq. ft. 1,742 sq. ft. $167
2018-08-23 Single Family Cape 14 Apple Tree Ln New Bedford, MA 02740 $367,888 1,850 sq. ft. 8,276 sq. ft. $199
2018-08-22 Single Family Bungalow 193 Query St New Bedford, MA 02745 $243,900 1,550 sq. ft. 3,049 sq. ft. $157
2018-08-22 Single Family Cottage; Other (See Remarks) 439 Mill St New Bedford, MA 02740 $179,900 1,005 sq. ft. 1,742 sq. ft. $179
2018-08-21 Single Family Cottage 208 Hathaway St New Bedford, MA 02746 $224,000 1,271 sq. ft. 3,920 sq. ft. $176
2018-08-21 Single Family Ranch 1495 Sassaquin Avenue New Bedford, MA 02745 $389,900 2,094 sq. ft. 19,166 sq. ft. $186
2018-08-20 Single Family Colonial 528 Lantern Ln New Bedford, MA 02740 $274,900 1,872 sq. ft. 13,068 sq. ft. $147
2018-08-20 Single Family Raised Ranch 32 Cindy Lane New Bedford, MA 02746 $293,000 1,274 sq. ft. 4,792 sq. ft. $230
2018-08-20 Single Family Ranch 231 Milford St New Bedford, MA 02745 $279,000 2,037 sq. ft. 6,534 sq. ft. $137
2018-08-20 Single Family Cottage 92 Potter St New Bedford, MA 02740 $197,000 1,051 sq. ft. 10,019 sq. ft. $187
2018-08-19 Single Family Victorian 549 County St New Bedford, MA 02740 $1,145,000 5,656 sq. ft. 21,780 sq. ft. $202
2018-08-18 Single Family Raised Ranch 1491 Sassaquin Ave New Bedford, MA 02745 $355,000 2,226 sq. ft. 8,276 sq. ft. $159
2018-08-17 Single Family Cottage 49 Rodney St New Bedford, MA 02744 $219,900 1,089 sq. ft. 3,920 sq. ft. $202
2018-08-16 Single Family Cottage 30 Clark New Bedford, MA 02740 $174,900 1,304 sq. ft. 3,049 sq. ft. $134
2018-08-16 Single Family Cottage 327 Sawyer St New Bedford, MA 02746 $289,000 1,513 sq. ft. 6,970 sq. ft. $191
2018-08-15 Single Family Raised Ranch 892 Maplewood St New Bedford, MA 02745 $330,000 1,050 sq. ft. 16,117 sq. ft. $314
2018-08-15 Single Family Raised Ranch 1675 Phillips Rd New Bedford, MA 02745 $299,000 1,188 sq. ft. 12,197 sq. ft. $252
2018-08-15 Single Family Cottage 355 Elm Street New Bedford, MA 02740 $179,900 1,263 sq. ft. 3,049 sq. ft. $142
2018-08-14 Single Family Cottage 90 Hemlock New Bedford, MA 02740 $150,900 1,006 sq. ft. 2,614 sq. ft. $150
2018-08-14 Single Family Raised Ranch 149 Query St New Bedford, MA 02745 $279,900 1,234 sq. ft. 5,663 sq. ft. $227
2018-08-10 Single Family Colonial 78 Tarkiln Place New Bedford, MA 02745 $359,900 2,160 sq. ft. 11,326 sq. ft. $167
2018-08-10 Single Family Cottage 7 Thatcher New Bedford, MA 02744 $169,000 1,157 sq. ft. 0 sq. ft. $146
2018-08-08 Single Family Cottage 415 Cedar St New Bedford, MA 02740 $219,500 1,332 sq. ft. 4,356 sq. ft. $165
2018-08-07 Single Family Ranch 469 Sawyer St New Bedford, MA 02746 $239,000 1,348 sq. ft. 9,148 sq. ft. $177
2018-08-06 Single Family Cottage 100 Tallman St New Bedford, MA 02746 $36,900 988 sq. ft. 3,920 sq. ft. $37
2018-08-04 Single Family Cape 535 Kempton St New Bedford, MA 02740 $264,900 1,597 sq. ft. 7,405 sq. ft. $166
2018-08-04 Single Family Garrison; Multi-Level 282 Allen New Bedford, MA 02745 $239,900 1,423 sq. ft. 1,307 sq. ft. $169
2018-08-02 Single Family Colonial 250 Harwich St New Bedford, MA 02745 $269,900 1,651 sq. ft. 6,534 sq. ft. $163
2018-08-01 Single Family Cottage 9 Washington Street New Bedford, MA 02740 $179,900 1,604 sq. ft. 3,920 sq. ft. $112
2018-08-01 Single Family Cottage 43 Milford Street New Bedford, MA 02745 $224,900 1,186 sq. ft. 3,485 sq. ft. $190
2018-08-01 Single Family Cottage 5 Stanton Ct New Bedford, MA 02740 $113,400 1,138 sq. ft. 2,614 sq. ft. $100
2018-07-30 Single Family Colonial 124 Cedar St New Bedford, MA 02740 $79,900 1,690 sq. ft. 3,049 sq. ft. $47
2018-07-26 Single Family Bungalow 326 Hersom St New Bedford, MA 02745 $299,900 1,372 sq. ft. 6,098 sq. ft. $219
2018-07-22 Single Family 62 Sylvia St New Bedford, MA 02745 $224,900 1,064 sq. ft. 0 sq. ft. $211
2018-07-20 Single Family Cape 169 Plymouth Street New Bedford, MA 02740 $259,900 1,900 sq. ft. 5,663 sq. ft. $137
2018-07-18 Single Family Raised Ranch 262 Heritage Dr New Bedford, MA 02745 $279,990 1,028 sq. ft. 6,534 sq. ft. $272
2018-07-17 Single Family Cape 1262 Church St New Bedford, MA 02745 $184,000 1,729 sq. ft. 6,534 sq. ft. $106
2018-07-17 Single Family Colonial 3591 Acushnet Ave New Bedford, MA 02745 $324,900 2,256 sq. ft. 13,068 sq. ft. $144
2018-07-13 Single Family Cottage; Shingle 135 Pleasant Street New Bedford, MA 02740 $127,720 1,723 sq. ft. 5,227 sq. ft. $74
2018-07-13 Single Family Colonial 131 Bedford St New Bedford, MA 02740 $339,000 1,714 sq. ft. $198
2018-07-13 Single Family Raised Ranch 1643 Phillips Road New Bedford, MA 02745 $299,900 1,240 sq. ft. 16,117 sq. ft. $242
2018-07-12 Single Family Colonial 212 Maple St New Bedford, MA 02740 $259,900 1,698 sq. ft. 2,614 sq. ft. $153
2018-07-10 Single Family Colonial 28 Mapleview Ter New Bedford, MA 02740 $289,900 2,691 sq. ft. 3,920 sq. ft. $108
2018-07-09 Single Family Cottage 280 Mill St New Bedford, MA 02740 $164,500 1,084 sq. ft. 1,742 sq. ft. $152
2018-07-07 Single Family Raised Ranch 1098 Church St New Bedford, MA 02745 $279,000 2,010 sq. ft. 7,841 sq. ft. $139
2018-07-04 Single Family Ranch 3863 Acushnet Avenue New Bedford, MA 02745 $410,000 1,404 sq. ft. 12,632 sq. ft. $292
2018-07-02 Single Family Colonial 138 Rotch St New Bedford, MA 02740 $194,000 1,520 sq. ft. 3,049 sq. ft. $128
2018-06-29 Single Family Cape 1599 Padanaram Ave New Bedford, MA 02740 $239,000 1,498 sq. ft. 12,632 sq. ft. $160
2018-06-29 Single Family Cape 234 Bellevue St New Bedford, MA 02744 $289,900 1,814 sq. ft. 7,841 sq. ft. $160
2018-06-27 Single Family Ranch 143 Armsby St New Bedford, MA 02745 $235,000 1,232 sq. ft. 9,583 sq. ft. $191
2018-06-25 Single Family Cape 31 Christopher Court New Bedford, MA 02745 $279,000 1,452 sq. ft. 5,663 sq. ft. $192
2018-06-25 Single Family Raised Ranch; Split Entry; Multi-Level 1090 Church Street New Bedford, MA 02745 $299,900 1,901 sq. ft. 9,148 sq. ft. $158
2018-06-22 Single Family Raised Ranch 25 Holden New Bedford, MA 02745 $325,000 2,400 sq. ft. 6,970 sq. ft. $135
2018-06-17 Single Family Colonial 224 Carroll St New Bedford, MA 02740 $339,000 1,845 sq. ft. 3,485 sq. ft. $184
2018-06-08 Single Family Raised Ranch 0 Braley Rd (Ns) New Bedford, MA 02740 $349,900 1,344 sq. ft. 9,148 sq. ft. $260
2018-05-28 Single Family Ranch 227 Portland St New Bedford, MA 02744 $275,000 1,210 sq. ft. 4,792 sq. ft. $227
2018-05-21 Single Family Colonial 240 State St New Bedford, MA 02740 $219,900 1,728 sq. ft. 4,792 sq. ft. $127
2018-05-04 Single Family Cottage 65 Linden St New Bedford, MA 02740 $124,900 1,548 sq. ft. 3,920 sq. ft. $81
2018-04-20 Single Family Colonial 3088-3090 Acushnet Ave New Bedford, MA 02745 $174,900 2,162 sq. ft. 10,019 sq. ft. $81
2018-04-17 Single Family Colonial 27 Jenny Lind St New Bedford, MA 02740 $284,900 1,884 sq. ft. 8,276 sq. ft. $151
2018-04-13 Single Family Colonial 4 Eastland Ter New Bedford, MA 02740 $314,900 1,582 sq. ft. 8,712 sq. ft. $199
2018-03-26 Single Family Cottage 258 Chestnut St New Bedford, MA 02740 $174,900 1,175 sq. ft. 2,178 sq. ft. $149
2017-10-07 Single Family Colonial 77 Armsby Street New Bedford, MA 02745 $354,900 1,872 sq. ft. 9,148 sq. ft. $190
2017-07-24 Single Family Cottage 101 Rockland Street New Bedford, MA 02740 $92,000 1,199 sq. ft. 1,742 sq. ft. $77
2017-07-19 Single Family Colonial 265 Pope St New Bedford, MA 02740 $129,900 1,629 sq. ft. 3,485 sq. ft. $80
2015-06-23 Single Family Colonial 40 Salisbury Street New Bedford, MA 02744 $99,900 1,100 sq. ft. 1,307 sq. ft. $91